createdAt,value
2017-05-24T00:00:23.232Z,11.75
2017-05-24T00:01:22.924Z,11.7
2017-05-24T00:02:22.917Z,11.75
2017-05-24T00:03:22.914Z,11.57
2017-05-24T00:04:23.212Z,11.54
2017-05-24T00:05:22.898Z,11.51
2017-05-24T00:06:23.195Z,11.54
2017-05-24T00:07:22.886Z,11.47
2017-05-24T00:08:22.886Z,11.49
2017-05-24T00:09:23.177Z,11.44
2017-05-24T00:10:22.864Z,11.42
2017-05-24T00:11:23.161Z,11.44
2017-05-24T00:12:22.860Z,11.39
2017-05-24T00:13:22.847Z,11.33
2017-05-24T00:14:23.146Z,11.37
2017-05-24T00:15:23.136Z,11.28
2017-05-24T00:16:23.136Z,11.21
2017-05-24T00:17:23.122Z,11.29
2017-05-24T00:18:23.121Z,11.27
2017-05-24T00:19:23.112Z,11.27
2017-05-24T00:20:23.104Z,11.32
2017-05-24T00:21:23.097Z,11.27
2017-05-24T00:22:23.094Z,11.19
2017-05-24T00:23:23.083Z,11.22
2017-05-24T00:24:23.380Z,11.1
2017-05-24T00:25:23.074Z,11.1
2017-05-24T00:26:23.060Z,11.11
2017-05-24T00:27:23.056Z,11.09
2017-05-24T00:28:23.053Z,11.04
2017-05-24T00:29:23.344Z,11.07
2017-05-24T00:30:23.034Z,10.96
2017-05-24T00:31:23.034Z,10.89
2017-05-24T00:32:23.021Z,10.94
2017-05-24T00:33:23.016Z,10.88
2017-05-24T00:34:23.260Z,10.94
2017-05-24T00:35:23.001Z,10.91
2017-05-24T00:36:22.994Z,10.89
2017-05-24T00:37:22.993Z,10.84
2017-05-24T00:38:22.978Z,10.92
2017-05-24T00:39:23.226Z,10.88
2017-05-24T00:40:22.970Z,10.91
2017-05-24T00:41:22.958Z,10.92
2017-05-24T00:42:22.955Z,10.94
2017-05-24T00:43:22.945Z,10.92
2017-05-24T00:44:23.293Z,10.91
2017-05-24T00:45:22.930Z,10.86
2017-05-24T00:46:22.622Z,10.91
2017-05-24T00:47:22.613Z,10.89
2017-05-24T00:48:22.606Z,10.84
2017-05-24T00:49:23.209Z,10.89
2017-05-24T00:50:22.895Z,10.89
2017-05-24T00:51:22.886Z,10.78
2017-05-24T00:52:22.880Z,10.79
2017-05-24T00:53:22.878Z,10.76
2017-05-24T00:54:23.115Z,10.76
2017-05-24T00:55:22.858Z,10.71
2017-05-24T00:56:22.854Z,10.78
2017-05-24T00:57:22.846Z,10.73
2017-05-24T00:58:22.840Z,10.76
2017-05-24T00:59:23.192Z,10.71
2017-05-24T01:00:22.824Z,10.7
2017-05-24T01:01:22.825Z,10.66
2017-05-24T01:02:22.812Z,10.66
2017-05-24T01:03:22.501Z,10.67
2017-05-24T01:04:22.746Z,10.67
2017-05-24T01:05:22.788Z,10.73
2017-05-24T01:06:22.782Z,10.64
2017-05-24T01:07:22.773Z,10.67
2017-05-24T01:08:22.769Z,10.64
2017-05-24T01:09:23.057Z,10.64
2017-05-24T01:10:22.756Z,10.68
2017-05-24T01:11:22.746Z,10.67
2017-05-24T01:12:22.737Z,10.66
2017-05-24T01:13:22.427Z,10.67
2017-05-24T01:14:22.670Z,10.63
2017-05-24T01:15:22.720Z,10.68
2017-05-24T01:16:22.709Z,10.64
2017-05-24T01:17:22.706Z,10.64
2017-05-24T01:18:22.395Z,10.68
2017-05-24T01:19:22.695Z,10.64
2017-05-24T01:20:22.679Z,10.73
2017-05-24T01:21:22.065Z,10.68
2017-05-24T01:22:22.399Z,10.73
2017-05-24T01:23:22.659Z,10.79
2017-05-24T01:24:22.909Z,10.79
2017-05-24T01:25:22.341Z,10.84
2017-05-24T01:26:22.337Z,10.81
2017-05-24T01:27:22.629Z,10.84
2017-05-24T01:28:22.622Z,10.89
2017-05-24T01:29:22.864Z,10.94
2017-05-24T01:30:22.305Z,10.84
2017-05-24T01:31:22.600Z,10.89
2017-05-24T01:32:22.293Z,10.86
2017-05-24T01:33:22.587Z,10.94
2017-05-24T01:34:22.883Z,10.88
2017-05-24T01:35:22.570Z,10.92
2017-05-24T01:36:22.564Z,11.02
2017-05-24T01:37:22.558Z,11
2017-05-24T01:38:22.551Z,11.03
2017-05-24T01:39:22.541Z,10.89
2017-05-24T01:40:22.536Z,11.04
2017-05-24T01:41:22.231Z,11.06
2017-05-24T01:42:22.523Z,11.17
2017-05-24T01:43:22.513Z,11.09
2017-05-24T01:44:22.762Z,11.11
2017-05-24T01:45:22.500Z,11.1
2017-05-24T01:46:22.189Z,11.07
2017-05-24T01:47:22.488Z,11.15
2017-05-24T01:48:22.479Z,11.09
2017-05-24T01:49:22.723Z,11.19
2017-05-24T01:50:22.464Z,11.22
2017-05-24T01:51:22.458Z,11.15
2017-05-24T01:52:22.451Z,11.19
2017-05-24T01:53:22.442Z,11.15
2017-05-24T01:54:22.688Z,11.07
2017-05-24T01:55:22.128Z,11.15
2017-05-24T01:56:22.432Z,11.06
2017-05-24T01:57:22.416Z,11.06
2017-05-24T01:58:22.408Z,10.96
2017-05-24T01:59:22.654Z,10.99
2017-05-24T02:00:22.394Z,10.91
2017-05-24T02:01:22.392Z,10.94
2017-05-24T02:02:22.382Z,10.89
2017-05-24T02:03:22.372Z,10.89
2017-05-24T02:04:22.668Z,10.82
2017-05-24T02:05:22.359Z,10.84
2017-05-24T02:06:22.350Z,10.82
2017-05-24T02:07:22.352Z,10.74
2017-05-24T02:08:22.338Z,10.7
2017-05-24T02:09:22.681Z,10.79
2017-05-24T02:10:22.021Z,10.73
2017-05-24T02:11:22.013Z,10.68
2017-05-24T02:12:22.314Z,10.64
2017-05-24T02:13:22.301Z,10.68
2017-05-24T02:14:21.993Z,10.66
2017-05-24T02:15:22.347Z,10.6
2017-05-24T02:16:22.280Z,10.53
2017-05-24T02:17:22.271Z,10.63
2017-05-24T02:18:22.266Z,10.67
2017-05-24T02:19:22.260Z,10.59
2017-05-24T02:20:22.251Z,10.68
2017-05-24T02:21:22.244Z,10.67
2017-05-24T02:22:22.237Z,10.64
2017-05-24T02:23:21.925Z,10.74
2017-05-24T02:24:22.224Z,10.74
2017-05-24T02:25:22.214Z,10.81
2017-05-24T02:26:22.215Z,10.81
2017-05-24T02:27:22.200Z,10.89
2017-05-24T02:28:21.899Z,10.85
2017-05-24T02:29:22.187Z,10.86
2017-05-24T02:30:22.179Z,10.96
2017-05-24T02:31:22.171Z,11.03
2017-05-24T02:32:22.164Z,11.07
2017-05-24T02:33:22.160Z,11.14
2017-05-24T02:34:22.150Z,11.04
2017-05-24T02:35:22.142Z,11.14
2017-05-24T02:36:22.137Z,11.11
2017-05-24T02:37:22.132Z,11.17
2017-05-24T02:38:22.126Z,11.14
2017-05-24T02:39:22.115Z,11.21
2017-05-24T02:40:22.107Z,11.24
2017-05-24T02:41:22.102Z,11.27
2017-05-24T02:42:22.094Z,11.29
2017-05-24T02:43:22.091Z,11.27
2017-05-24T02:44:22.081Z,11.27
2017-05-24T02:45:22.072Z,11.28
2017-05-24T02:46:22.066Z,11.35
2017-05-24T02:47:22.060Z,11.29
2017-05-24T02:48:21.748Z,11.29
2017-05-24T02:49:22.049Z,11.37
2017-05-24T02:50:22.036Z,11.37
2017-05-24T02:51:22.030Z,11.25
2017-05-24T02:52:22.034Z,11.32
2017-05-24T02:53:22.015Z,11.35
2017-05-24T02:54:22.010Z,11.32
2017-05-24T02:55:22.001Z,11.4
2017-05-24T02:56:21.995Z,11.46
2017-05-24T02:57:21.988Z,11.37
2017-05-24T02:58:22.034Z,11.37
2017-05-24T02:59:21.975Z,11.42
2017-05-24T03:00:21.967Z,11.39
2017-05-24T03:01:21.959Z,11.37
2017-05-24T03:02:21.955Z,11.46
2017-05-24T03:03:21.947Z,11.47
2017-05-24T03:04:21.637Z,11.52
2017-05-24T03:05:21.936Z,11.46
2017-05-24T03:06:21.319Z,11.52
2017-05-24T03:07:21.919Z,11.65
2017-05-24T03:08:21.911Z,11.57
2017-05-24T03:09:21.906Z,11.64
2017-05-24T03:10:21.897Z,11.73
2017-05-24T03:11:21.891Z,11.67
2017-05-24T03:12:21.582Z,11.76
2017-05-24T03:13:21.576Z,11.73
2017-05-24T03:14:21.872Z,11.65
2017-05-24T03:15:21.563Z,11.78
2017-05-24T03:16:21.555Z,11.8
2017-05-24T03:17:21.549Z,11.8
2017-05-24T03:18:21.849Z,11.79
2017-05-24T03:19:21.840Z,11.76
2017-05-24T03:20:21.835Z,11.9
2017-05-24T03:21:21.522Z,11.83
2017-05-24T03:22:21.818Z,11.86
2017-05-24T03:23:21.207Z,11.72
2017-05-24T03:24:21.514Z,11.79
2017-05-24T03:25:21.189Z,11.95
2017-05-24T03:26:21.486Z,11.82
2017-05-24T03:27:21.481Z,11.96
2017-05-24T03:28:21.479Z,11.95
2017-05-24T03:29:21.166Z,11.94
2017-05-24T03:30:22.019Z,11.99
2017-05-24T03:31:21.760Z,12.09
2017-05-24T03:32:21.446Z,11.98
2017-05-24T03:33:21.448Z,12.16
2017-05-24T03:34:21.741Z,12.01
2017-05-24T03:35:22.031Z,12.01
2017-05-24T03:36:21.122Z,12.04
2017-05-24T03:37:21.723Z,12.02
2017-05-24T03:38:21.411Z,12.05
2017-05-24T03:39:21.709Z,12.14
2017-05-24T03:40:21.645Z,12.2
2017-05-24T03:41:21.390Z,12.17
2017-05-24T03:42:21.381Z,12.28
2017-05-24T03:43:21.377Z,12.24
2017-05-24T03:44:21.371Z,12.23
2017-05-24T03:45:21.063Z,12.27
2017-05-24T03:46:21.662Z,12.34
2017-05-24T03:47:21.657Z,12.29
2017-05-24T03:48:21.650Z,12.39
2017-05-24T03:49:21.340Z,12.46
2017-05-24T03:50:21.334Z,12.39
2017-05-24T03:51:21.329Z,12.49
2017-05-24T03:52:21.623Z,12.45
2017-05-24T03:53:21.317Z,12.39
2017-05-24T03:54:21.309Z,12.42
2017-05-24T03:55:21.605Z,12.45
2017-05-24T03:56:21.294Z,12.47
2017-05-24T03:57:21.289Z,12.49
2017-05-24T03:58:21.283Z,12.54
2017-05-24T03:59:21.277Z,12.64
2017-05-24T04:00:21.580Z,12.62
2017-05-24T04:01:21.566Z,12.68
2017-05-24T04:02:21.259Z,12.67
2017-05-24T04:03:21.251Z,12.7
2017-05-24T04:04:21.247Z,12.64
2017-05-24T04:05:21.239Z,12.74
2017-05-24T04:06:21.231Z,12.68
2017-05-24T04:07:21.226Z,12.67
2017-05-24T04:08:21.526Z,12.72
2017-05-24T04:09:21.525Z,12.72
2017-05-24T04:10:21.514Z,12.74
2017-05-24T04:11:21.454Z,12.86
2017-05-24T04:12:21.501Z,12.83
2017-05-24T04:13:21.499Z,12.87
2017-05-24T04:14:21.493Z,12.87
2017-05-24T04:15:21.483Z,12.95
2017-05-24T04:16:21.426Z,12.97
2017-05-24T04:17:21.470Z,13
2017-05-24T04:18:21.469Z,13.01
2017-05-24T04:19:21.464Z,13.01
2017-05-24T04:20:21.455Z,13.04
2017-05-24T04:21:21.700Z,13.01
2017-05-24T04:22:21.445Z,13.15
2017-05-24T04:23:21.436Z,12.96
2017-05-24T04:24:21.431Z,12.97
2017-05-24T04:25:21.424Z,13.1
2017-05-24T04:26:21.367Z,13.12
2017-05-24T04:27:21.413Z,13.11
2017-05-24T04:28:21.405Z,13.11
2017-05-24T04:29:21.403Z,13.2
2017-05-24T04:30:21.091Z,13.2
2017-05-24T04:31:21.643Z,13.2
2017-05-24T04:32:21.383Z,13.26
2017-05-24T04:33:21.076Z,13.25
2017-05-24T04:34:21.068Z,13.29
2017-05-24T04:35:21.366Z,13.42
2017-05-24T04:36:21.665Z,13.36
2017-05-24T04:37:21.355Z,13.52
2017-05-24T04:38:21.348Z,13.48
2017-05-24T04:39:21.355Z,13.55
2017-05-24T04:40:21.341Z,13.6
2017-05-24T04:41:21.632Z,13.55
2017-05-24T04:42:21.328Z,13.63
2017-05-24T04:43:21.327Z,13.6
2017-05-24T04:44:21.323Z,13.64
2017-05-24T04:45:21.315Z,13.73
2017-05-24T04:46:21.256Z,13.77
2017-05-24T04:47:21.306Z,13.82
2017-05-24T04:48:21.302Z,13.85
2017-05-24T04:49:21.292Z,13.82
2017-05-24T04:50:21.286Z,13.88
2017-05-24T04:51:21.583Z,13.87
2017-05-24T04:52:21.276Z,13.96
2017-05-24T04:53:21.276Z,13.85
2017-05-24T04:54:21.263Z,13.87
2017-05-24T04:55:21.261Z,13.87
2017-05-24T04:56:21.553Z,13.89
2017-05-24T04:57:21.251Z,13.89
2017-05-24T04:58:21.245Z,14.02
2017-05-24T04:59:21.244Z,13.96
2017-05-24T05:00:21.233Z,14
2017-05-24T05:01:21.480Z,14.03
2017-05-24T05:02:21.229Z,14
2017-05-24T05:03:21.221Z,14.02
2017-05-24T05:04:21.217Z,14.06
2017-05-24T05:05:21.211Z,13.97
2017-05-24T05:06:21.457Z,14.06
2017-05-24T05:07:21.199Z,14.06
2017-05-24T05:08:21.200Z,13.97
2017-05-24T05:09:21.195Z,14.02
2017-05-24T05:10:21.188Z,14.04
2017-05-24T05:11:21.429Z,13.97
2017-05-24T05:12:21.175Z,13.89
2017-05-24T05:13:21.174Z,13.89
2017-05-24T05:14:21.167Z,13.85
2017-05-24T05:15:21.162Z,13.75
2017-05-24T05:16:21.406Z,13.87
2017-05-24T05:17:21.153Z,13.84
2017-05-24T05:18:21.145Z,13.99
2017-05-24T05:19:21.146Z,13.88
2017-05-24T05:20:21.136Z,13.95
2017-05-24T05:21:21.433Z,13.89
2017-05-24T05:22:21.122Z,13.99
2017-05-24T05:23:21.121Z,14.04
2017-05-24T05:24:21.116Z,14.03
2017-05-24T05:25:21.112Z,14.03
2017-05-24T05:26:21.356Z,14.09
2017-05-24T05:27:21.098Z,13.97
2017-05-24T05:28:21.099Z,13.96
2017-05-24T05:29:20.787Z,13.89
2017-05-24T05:30:20.782Z,13.95
2017-05-24T05:31:21.381Z,13.92
2017-05-24T05:32:21.078Z,14
2017-05-24T05:33:21.071Z,14.07
2017-05-24T05:34:21.066Z,13.99
2017-05-24T05:35:21.059Z,13.89
2017-05-24T05:36:21.328Z,13.88
2017-05-24T05:37:21.049Z,13.91
2017-05-24T05:38:21.047Z,13.89
2017-05-24T05:39:21.041Z,14.03
2017-05-24T05:40:21.038Z,14.02
2017-05-24T05:41:21.029Z,14.02
2017-05-24T05:42:21.025Z,14.15
2017-05-24T05:43:21.031Z,14.15
2017-05-24T05:44:21.018Z,14.09
2017-05-24T05:45:21.011Z,14.04
2017-05-24T05:46:21.310Z,13.97
2017-05-24T05:47:21.004Z,14.04
2017-05-24T05:48:20.999Z,14
2017-05-24T05:49:20.991Z,14.04
2017-05-24T05:50:20.987Z,14.12
2017-05-24T05:51:21.242Z,14.12
2017-05-24T05:52:20.979Z,14.17
2017-05-24T05:53:20.974Z,14.14
2017-05-24T05:54:20.966Z,14.12
2017-05-24T05:55:20.960Z,14.12
2017-05-24T05:56:21.206Z,14.1
2017-05-24T05:57:20.951Z,14.09
2017-05-24T05:58:20.945Z,14.09
2017-05-24T05:59:20.941Z,14.14
2017-05-24T06:00:20.942Z,14.1
2017-05-24T06:01:21.235Z,14.14
2017-05-24T06:02:20.928Z,14.18
2017-05-24T06:03:20.922Z,14.07
2017-05-24T06:04:20.924Z,14.07
2017-05-24T06:05:20.915Z,14.09
2017-05-24T06:06:21.160Z,14.15
2017-05-24T06:07:20.906Z,14.09
2017-05-24T06:08:20.897Z,14.21
2017-05-24T06:09:20.893Z,14.24
2017-05-24T06:10:20.582Z,14.15
2017-05-24T06:11:21.135Z,14.17
2017-05-24T06:12:20.884Z,14.2
2017-05-24T06:13:20.574Z,14.22
2017-05-24T06:14:20.870Z,14.2
2017-05-24T06:15:20.863Z,14.2
2017-05-24T06:16:21.159Z,14.28
2017-05-24T06:17:20.853Z,14.32
2017-05-24T06:18:20.853Z,14.22
2017-05-24T06:19:20.846Z,14.33
2017-05-24T06:20:20.839Z,14.32
2017-05-24T06:21:21.087Z,14.22
2017-05-24T06:22:20.830Z,14.22
2017-05-24T06:23:20.829Z,14.28
2017-05-24T06:24:20.823Z,14.21
2017-05-24T06:25:20.815Z,14.24
2017-05-24T06:26:21.062Z,14.21
2017-05-24T06:27:20.805Z,14.18
2017-05-24T06:28:20.804Z,14.22
2017-05-24T06:29:20.797Z,14.22
2017-05-24T06:30:20.790Z,14.24
2017-05-24T06:31:21.091Z,14.28
2017-05-24T06:32:20.781Z,14.27
2017-05-24T06:33:20.781Z,14.24
2017-05-24T06:34:20.774Z,14.32
2017-05-24T06:35:20.766Z,14.32
2017-05-24T06:36:21.012Z,14.32
2017-05-24T06:37:20.759Z,14.22
2017-05-24T06:38:20.755Z,14.12
2017-05-24T06:39:20.751Z,14.17
2017-05-24T06:40:20.792Z,14.07
2017-05-24T06:41:21.089Z,14.09
2017-05-24T06:42:20.736Z,14.1
2017-05-24T06:43:20.728Z,14.09
2017-05-24T06:44:20.727Z,14.12
2017-05-24T06:45:20.416Z,14.1
2017-05-24T06:46:20.967Z,14.17
2017-05-24T06:47:20.710Z,14.1
2017-05-24T06:48:20.461Z,14.07
2017-05-24T06:49:20.703Z,14.04
2017-05-24T06:50:20.391Z,14.15
2017-05-24T06:51:20.940Z,14.2
2017-05-24T06:52:20.688Z,14.15
2017-05-24T06:53:20.684Z,14.25
2017-05-24T06:54:20.374Z,14.33
2017-05-24T06:55:20.366Z,14.35
2017-05-24T06:56:20.615Z,14.5
2017-05-24T06:57:20.663Z,14.55
2017-05-24T06:58:20.661Z,14.62
2017-05-24T06:59:20.351Z,14.58
2017-05-24T07:00:20.651Z,14.68
2017-05-24T07:01:20.893Z,14.7
2017-05-24T07:02:20.353Z,14.81
2017-05-24T07:03:20.639Z,14.77
2017-05-24T07:04:20.330Z,14.84
2017-05-24T07:05:20.322Z,14.89
2017-05-24T07:06:20.570Z,14.91
2017-05-24T07:07:20.622Z,14.98
2017-05-24T07:08:20.614Z,14.96
2017-05-24T07:09:20.610Z,15.01
2017-05-24T07:10:20.658Z,15.03
2017-05-24T07:11:20.545Z,15.02
2017-05-24T07:12:20.301Z,14.94
2017-05-24T07:13:20.594Z,15.02
2017-05-24T07:14:20.589Z,15.01
2017-05-24T07:15:20.584Z,15.02
2017-05-24T07:16:20.829Z,15.03
2017-05-24T07:17:20.577Z,15.1
2017-05-24T07:18:20.631Z,15.2
2017-05-24T07:19:20.569Z,15.23
2017-05-24T07:20:20.566Z,15.16
2017-05-24T07:21:20.813Z,15.16
2017-05-24T07:22:20.561Z,15.23
2017-05-24T07:23:20.555Z,15.29
2017-05-24T07:24:20.554Z,15.35
2017-05-24T07:25:20.552Z,15.47
2017-05-24T07:26:20.795Z,15.39
2017-05-24T07:27:20.541Z,15.51
2017-05-24T07:28:20.539Z,15.64
2017-05-24T07:29:20.532Z,15.65
2017-05-24T07:30:20.527Z,15.74
2017-05-24T07:31:20.824Z,15.94
2017-05-24T07:32:20.528Z,16.14
2017-05-24T07:33:20.517Z,16.27
2017-05-24T07:34:20.516Z,16.56
2017-05-24T07:35:20.514Z,16.73
2017-05-24T07:36:20.810Z,16.94
2017-05-24T07:37:20.504Z,17.15
2017-05-24T07:38:20.503Z,17.34
2017-05-24T07:39:20.501Z,17.37
2017-05-24T07:40:20.498Z,17.41
2017-05-24T07:41:20.794Z,17.64
2017-05-24T07:42:20.492Z,17.82
2017-05-24T07:43:20.504Z,18.1
2017-05-24T07:44:20.486Z,18.2
2017-05-24T07:45:20.484Z,18.45
2017-05-24T07:46:20.734Z,18.5
2017-05-24T07:47:20.485Z,18.57
2017-05-24T07:48:20.482Z,18.63
2017-05-24T07:49:20.482Z,18.52
2017-05-24T07:50:20.478Z,18.62
2017-05-24T07:51:20.777Z,18.63
2017-05-24T07:52:20.488Z,18.81
2017-05-24T07:53:19.878Z,18.9
2017-05-24T07:54:20.485Z,19
2017-05-24T07:55:20.475Z,19.23
2017-05-24T07:56:20.728Z,19.48
2017-05-24T07:57:20.485Z,19.63
2017-05-24T07:58:20.480Z,19.81
2017-05-24T07:59:20.478Z,19.91
2017-05-24T08:00:20.478Z,20.05
2017-05-24T08:01:20.478Z,20.18
2017-05-24T08:02:20.169Z,20.06
2017-05-24T08:03:20.476Z,20.08
2017-05-24T08:04:20.484Z,20.16
2017-05-24T08:05:20.474Z,20.16
2017-05-24T08:06:20.728Z,20.29
2017-05-24T08:07:19.869Z,20.26
2017-05-24T08:08:20.176Z,20.18
2017-05-24T08:09:20.486Z,20.17
2017-05-24T08:10:20.175Z,20.08
2017-05-24T08:11:20.477Z,20.11
2017-05-24T08:12:20.479Z,20.11
2017-05-24T08:13:20.480Z,20.17
2017-05-24T08:14:20.481Z,20.05
2017-05-24T08:15:20.483Z,19.83
2017-05-24T08:16:20.733Z,19.77
2017-05-24T08:17:20.489Z,19.69
2017-05-24T08:18:20.481Z,19.77
2017-05-24T08:19:20.486Z,19.61
2017-05-24T08:20:20.179Z,19.56
2017-05-24T08:21:20.435Z,19.56
2017-05-24T08:22:20.180Z,19.54
2017-05-24T08:23:20.485Z,19.5
2017-05-24T08:24:20.485Z,19.37
2017-05-24T08:25:20.483Z,19.23
2017-05-24T08:26:20.789Z,19.19
2017-05-24T08:27:20.483Z,19.06
2017-05-24T08:28:20.182Z,18.94
2017-05-24T08:29:20.483Z,18.91
2017-05-24T08:30:20.481Z,18.78
2017-05-24T08:31:20.735Z,18.8
2017-05-24T08:32:20.484Z,18.66
2017-05-24T08:33:20.485Z,18.7
2017-05-24T08:34:20.489Z,18.63
2017-05-24T08:35:20.481Z,18.26
2017-05-24T08:36:20.781Z,18.25
2017-05-24T08:37:20.479Z,18.25
2017-05-24T08:38:20.482Z,18.14
2017-05-24T08:39:20.478Z,18.15
2017-05-24T08:40:20.476Z,18.25
2017-05-24T08:41:20.726Z,18.23
2017-05-24T08:42:20.477Z,18.2
2017-05-24T08:43:20.476Z,18.03
2017-05-24T08:44:20.171Z,17.9
2017-05-24T08:45:20.471Z,17.92
2017-05-24T08:46:20.722Z,17.93
2017-05-24T08:47:20.473Z,17.92
2017-05-24T08:48:20.167Z,17.89
2017-05-24T08:49:20.165Z,17.86
2017-05-24T08:50:20.162Z,17.81
2017-05-24T08:51:20.762Z,17.95
2017-05-24T08:52:20.461Z,17.99
2017-05-24T08:53:20.460Z,18.1
2017-05-24T08:54:19.853Z,18.11
2017-05-24T08:55:20.153Z,18.07
2017-05-24T08:56:20.709Z,18.08
2017-05-24T08:57:20.453Z,18.23
2017-05-24T08:58:20.452Z,18.18
2017-05-24T08:59:20.544Z,18.2
2017-05-24T09:00:20.449Z,18.18
2017-05-24T09:01:20.393Z,18.02
2017-05-24T09:02:20.144Z,17.9
2017-05-24T09:03:20.444Z,17.77
2017-05-24T09:04:20.442Z,17.63
2017-05-24T09:05:20.443Z,17.54
2017-05-24T09:06:20.692Z,17.46
2017-05-24T09:07:20.136Z,17.38
2017-05-24T09:08:20.132Z,17.4
2017-05-24T09:09:20.137Z,17.38
2017-05-24T09:10:20.127Z,17.21
2017-05-24T09:11:20.378Z,17.25
2017-05-24T09:12:20.426Z,17.3
2017-05-24T09:13:20.126Z,17.34
2017-05-24T09:14:20.121Z,17.16
2017-05-24T09:15:20.421Z,17.18
2017-05-24T09:16:20.419Z,17.15
2017-05-24T09:17:20.115Z,17.15
2017-05-24T09:18:20.110Z,17.01
2017-05-24T09:19:20.109Z,16.96
2017-05-24T09:20:20.106Z,16.91
2017-05-24T09:21:20.104Z,16.93
2017-05-24T09:22:20.406Z,16.96
2017-05-24T09:23:20.103Z,16.91
2017-05-24T09:24:20.403Z,16.88
2017-05-24T09:25:20.397Z,16.86
2017-05-24T09:26:20.395Z,16.86
2017-05-24T09:27:20.393Z,16.85
2017-05-24T09:28:20.392Z,16.93
2017-05-24T09:29:20.392Z,17.08
2017-05-24T09:30:20.387Z,17.22
2017-05-24T09:31:20.386Z,17.36
2017-05-24T09:32:20.380Z,17.41
2017-05-24T09:33:20.393Z,17.41
2017-05-24T09:34:20.072Z,17.54
2017-05-24T09:35:20.071Z,17.68
2017-05-24T09:36:20.371Z,17.7
2017-05-24T09:37:20.968Z,17.86
2017-05-24T09:38:20.366Z,17.92
2017-05-24T09:39:20.064Z,18.03
2017-05-24T09:40:20.364Z,18.15
2017-05-24T09:41:20.361Z,18.29
2017-05-24T09:42:20.660Z,18.39
2017-05-24T09:43:20.361Z,18.66
2017-05-24T09:44:20.357Z,18.78
2017-05-24T09:45:20.358Z,18.91
2017-05-24T09:46:20.354Z,18.92
2017-05-24T09:47:20.654Z,18.99
2017-05-24T09:48:20.349Z,19.08
2017-05-24T09:49:20.350Z,19.25
2017-05-24T09:50:20.348Z,19.25
2017-05-24T09:51:20.349Z,19.23
2017-05-24T09:52:20.294Z,19.41
2017-05-24T09:53:20.345Z,19.32
2017-05-24T09:54:20.344Z,19.4
2017-05-24T09:55:20.344Z,19.31
2017-05-24T09:56:20.342Z,19.4
2017-05-24T09:57:20.390Z,19.44
2017-05-24T09:58:20.346Z,19.39
2017-05-24T09:59:20.343Z,19.43
2017-05-24T10:00:20.344Z,19.41
2017-05-24T10:01:20.344Z,19.39
2017-05-24T10:02:20.288Z,19.25
2017-05-24T10:03:20.348Z,19.14
2017-05-24T10:04:20.340Z,19.02
2017-05-24T10:05:20.038Z,18.94
2017-05-24T10:06:20.342Z,18.88
2017-05-24T10:07:20.335Z,18.81
2017-05-24T10:08:20.034Z,18.81
2017-05-24T10:09:20.341Z,18.66
2017-05-24T10:10:20.337Z,18.51
2017-05-24T10:11:20.338Z,18.45
2017-05-24T10:12:20.283Z,18.5
2017-05-24T10:13:20.335Z,18.52
2017-05-24T10:14:20.331Z,18.55
2017-05-24T10:15:20.331Z,18.51
2017-05-24T10:16:20.335Z,18.42
2017-05-24T10:17:20.276Z,18.32
2017-05-24T10:18:20.330Z,18.17
2017-05-24T10:19:20.334Z,18.25
2017-05-24T10:20:20.021Z,18.12
2017-05-24T10:21:20.322Z,17.99
2017-05-24T10:22:20.318Z,17.92
2017-05-24T10:23:20.321Z,17.92
2017-05-24T10:24:20.321Z,17.78
2017-05-24T10:25:20.318Z,17.74
2017-05-24T10:26:20.009Z,17.74
2017-05-24T10:27:20.258Z,17.64
2017-05-24T10:28:20.010Z,17.63
2017-05-24T10:29:20.309Z,17.54
2017-05-24T10:30:20.309Z,17.54
2017-05-24T10:31:20.001Z,17.54
2017-05-24T10:32:19.948Z,17.34
2017-05-24T10:33:20.299Z,17.25
2017-05-24T10:34:20.300Z,17.28
2017-05-24T10:35:20.294Z,17.14
2017-05-24T10:36:19.997Z,17.14
2017-05-24T10:37:20.238Z,17.07
2017-05-24T10:38:20.290Z,16.98
2017-05-24T10:39:20.287Z,16.94
2017-05-24T10:40:19.980Z,16.94
2017-05-24T10:41:20.283Z,16.98
2017-05-24T10:42:20.582Z,17.03
2017-05-24T10:43:20.280Z,17.07
2017-05-24T10:44:20.277Z,16.98
2017-05-24T10:45:20.270Z,17.01
2017-05-24T10:46:20.273Z,17
2017-05-24T10:47:20.566Z,17.14
2017-05-24T10:48:19.959Z,17.15
2017-05-24T10:49:19.963Z,17.3
2017-05-24T10:50:20.264Z,17.43
2017-05-24T10:51:20.256Z,17.58
2017-05-24T10:52:19.949Z,17.79
2017-05-24T10:53:20.259Z,17.9
2017-05-24T10:54:19.946Z,17.9
2017-05-24T10:55:19.944Z,17.9
2017-05-24T10:56:19.944Z,17.9
2017-05-24T10:57:20.243Z,17.96
2017-05-24T10:58:20.243Z,18.11
2017-05-24T10:59:19.937Z,18.32
2017-05-24T11:00:19.933Z,18.39
2017-05-24T11:01:19.930Z,18.62
2017-05-24T11:02:20.181Z,18.81
2017-05-24T11:03:19.927Z,19.1
2017-05-24T11:04:20.233Z,19.29
2017-05-24T11:05:20.228Z,19.44
2017-05-24T11:06:20.229Z,19.71
2017-05-24T11:07:20.481Z,19.81
2017-05-24T11:08:20.228Z,20.03
2017-05-24T11:09:20.225Z,20.18
2017-05-24T11:10:20.224Z,20.35
2017-05-24T11:11:20.229Z,20.54
2017-05-24T11:12:20.479Z,20.76
2017-05-24T11:13:20.230Z,20.79
2017-05-24T11:14:20.227Z,20.85
2017-05-24T11:15:20.226Z,20.58
2017-05-24T11:16:20.229Z,20.36
2017-05-24T11:17:20.527Z,20.36
2017-05-24T11:18:20.229Z,20.48
2017-05-24T11:19:20.227Z,20.38
2017-05-24T11:20:20.228Z,20.36
2017-05-24T11:21:20.229Z,20.29
2017-05-24T11:22:20.481Z,20.18
2017-05-24T11:23:20.231Z,20.06
2017-05-24T11:24:20.233Z,20.06
2017-05-24T11:25:19.928Z,19.92
2017-05-24T11:26:20.235Z,19.83
2017-05-24T11:27:20.484Z,19.61
2017-05-24T11:28:20.239Z,19.36
2017-05-24T11:29:20.234Z,19.37
2017-05-24T11:30:20.234Z,19.36
2017-05-24T11:31:20.235Z,19.48
2017-05-24T11:32:20.534Z,19.61
2017-05-24T11:33:20.238Z,19.74
2017-05-24T11:34:19.933Z,19.69
2017-05-24T11:35:20.236Z,19.63
2017-05-24T11:36:19.931Z,19.61
2017-05-24T11:37:20.487Z,19.71
2017-05-24T11:38:20.234Z,19.94
2017-05-24T11:39:19.629Z,19.92
2017-05-24T11:40:19.931Z,20.06
2017-05-24T11:41:19.628Z,20.26
2017-05-24T11:42:20.181Z,20.31
2017-05-24T11:43:19.932Z,20.32
2017-05-24T11:44:19.933Z,20.43
2017-05-24T11:45:20.234Z,20.48
2017-05-24T11:46:19.934Z,20.67
2017-05-24T11:47:20.486Z,20.85
2017-05-24T11:48:20.244Z,20.98
2017-05-24T11:49:20.239Z,21.13
2017-05-24T11:50:20.239Z,21.28
2017-05-24T11:51:20.245Z,21.47
2017-05-24T11:52:20.540Z,21.68
2017-05-24T11:53:19.936Z,21.86
2017-05-24T11:54:20.241Z,22
2017-05-24T11:55:20.246Z,22.09
2017-05-24T11:56:20.245Z,22.25
2017-05-24T11:57:20.501Z,22.37
2017-05-24T11:58:20.249Z,22.22
2017-05-24T11:59:20.252Z,22.33
2017-05-24T12:00:19.948Z,22.46
2017-05-24T12:01:20.250Z,22.62
2017-05-24T12:02:20.557Z,22.62
2017-05-24T12:03:20.257Z,22.62
2017-05-24T12:04:20.260Z,22.61
2017-05-24T12:05:20.262Z,22.64
2017-05-24T12:06:20.263Z,22.61
2017-05-24T12:07:20.565Z,22.6
2017-05-24T12:08:20.288Z,22.7
2017-05-24T12:09:20.269Z,22.86
2017-05-24T12:10:20.272Z,22.91
2017-05-24T12:11:20.275Z,22.94
2017-05-24T12:12:20.531Z,23.04
2017-05-24T12:13:19.977Z,23.2
2017-05-24T12:14:20.280Z,23.31
2017-05-24T12:15:20.286Z,23.43
2017-05-24T12:16:20.292Z,23.27
2017-05-24T12:17:20.544Z,23.17
2017-05-24T12:18:20.297Z,23.16
2017-05-24T12:19:20.301Z,23.28
2017-05-24T12:20:20.307Z,23.46
2017-05-24T12:21:20.303Z,23.51
2017-05-24T12:22:20.562Z,23.57
2017-05-24T12:23:20.004Z,23.54
2017-05-24T12:24:20.316Z,23.55
2017-05-24T12:25:20.313Z,23.57
2017-05-24T12:26:20.316Z,23.31
2017-05-24T12:27:20.576Z,23.31
2017-05-24T12:28:20.327Z,23.33
2017-05-24T12:29:20.327Z,23.22
2017-05-24T12:30:20.058Z,23.25
2017-05-24T12:31:20.029Z,23.17
2017-05-24T12:32:20.592Z,23.19
2017-05-24T12:33:20.338Z,23.19
2017-05-24T12:34:20.346Z,23.1
2017-05-24T12:35:20.044Z,22.91
2017-05-24T12:36:20.348Z,22.9
2017-05-24T12:37:20.603Z,22.94
2017-05-24T12:38:20.356Z,22.91
2017-05-24T12:39:20.359Z,22.95
2017-05-24T12:40:20.055Z,23.04
2017-05-24T12:41:20.364Z,23.1
2017-05-24T12:42:20.617Z,23.17
2017-05-24T12:43:20.066Z,23.22
2017-05-24T12:44:20.070Z,23.22
2017-05-24T12:45:20.071Z,23.38
2017-05-24T12:46:20.379Z,23.36
2017-05-24T12:47:20.381Z,23.2
2017-05-24T12:48:20.385Z,23.27
2017-05-24T12:49:20.082Z,23.2
2017-05-24T12:50:20.087Z,23.04
2017-05-24T12:51:20.089Z,22.86
2017-05-24T12:52:20.389Z,22.58
2017-05-24T12:53:20.094Z,22.36
2017-05-24T12:54:20.099Z,22.1
2017-05-24T12:55:20.400Z,21.84